Time;durP1;ratioP1;P1;durP2;ratioP2;P2;SDS_P1;SDS_P2;PMS_P1;PMS_P2;Temp;Humidity;BMP_temperature;BMP_pressure;BME280_temperature;BME280_humidity;BME280_pressure;Samples;Min_cycle;Max_cycle;Signal;HPM_P1;HPM_P2
2022/06/26 00:02:27;;;;;;;;;;;;;;;24.36;46.45;95436.53;10491052;28;2212;-58
2022/06/26 00:07:28;;;;;;;;;;;;;;;24.37;46.43;95438.09;10481458;28;1864;-58
2022/06/26 00:12:28;;;;;;;;;;;;;;;24.38;46.24;95439.66;10445336;28;2110;-58
2022/06/26 00:17:28;;;;;;;;;;;;;;;24.36;46.52;95452.44;10474140;28;1955;-56
2022/06/26 00:22:28;;;;;;;;;;;;;;;24.37;46.36;95448.69;10477264;28;1939;-57
2022/06/26 00:27:29;;;;;;;;;;;;;;;24.37;46.30;95456.63;10458098;28;1938;-58
2022/06/26 00:32:29;;;;;;;;;;;;;;;24.39;46.45;95462.41;10459098;28;1987;-56
2022/06/26 00:37:30;;;;;;;;;;;;;;;24.38;46.28;95451.03;10475934;28;1856;-57
2022/06/26 00:42:31;;;;;;;;;;;;;;;24.38;46.37;95466.16;10474105;28;1880;-58
2022/06/26 00:47:31;;;;;;;;;;;;;;;24.38;46.61;95463.50;10478264;28;1923;-59
2022/06/26 00:52:32;;;;;;;;;;;;;;;24.38;46.42;95452.91;10466779;28;1977;-56
2022/06/26 00:57:33;;;;;;;;;;;;;;;24.38;46.34;95460.84;10461739;28;1927;-59
2022/06/26 01:02:33;;;;;;;;;;;;;;;24.37;46.17;95459.28;10468715;28;1908;-57
2022/06/26 01:07:34;;;;;;;;;;;;;;;24.38;46.28;95464.25;10458866;28;2018;-57
2022/06/26 01:12:35;;;;;;;;;;;;;;;24.37;46.09;95467.22;10455174;28;2032;-57
2022/06/26 01:17:35;;;;;;;;;;;;;;;24.39;46.24;95459.75;10476752;28;1943;-56
2022/06/26 01:23:01;;;;;;;;;;;;;;;24.39;46.06;95462.41;10469621;28;1983;-58
2022/06/26 01:28:04;;;;;;;;;;;;;;;24.38;46.39;95466.16;10458360;28;2042;-58
2022/06/26 01:33:05;;;;;;;;;;;;;;;24.37;46.26;95451.31;10475855;28;1963;-56
2022/06/26 01:38:14;;;;;;;;;;;;;;;24.37;46.19;95464.56;10472761;28;1971;-57
2022/06/26 01:43:15;;;;;;;;;;;;;;;24.35;46.28;95464.88;10487495;28;1916;-56
2022/06/26 01:48:15;;;;;;;;;;;;;;;24.39;46.24;95470.34;10476403;28;1927;-59
2022/06/26 01:53:16;;;;;;;;;;;;;;;24.38;46.00;95463.50;10475190;28;1971;-56
2022/06/26 01:58:17;;;;;;;;;;;;;;;24.39;45.97;95457.09;10473295;28;1927;-58
2022/06/26 02:03:17;;;;;;;;;;;;;;;24.37;46.11;95460.06;10463119;28;1939;-58
2022/06/26 02:08:18;;;;;;;;;;;;;;;24.37;46.31;95459.28;10489971;28;1937;-57
2022/06/26 02:13:37;;;;;;;;;;;;;;;24.37;46.14;95459.28;10452477;28;1983;-57
2022/06/26 02:18:38;;;;;;;;;;;;;;;24.39;46.03;95467.69;10492067;28;1908;-58
2022/06/26 02:23:38;;;;;;;;;;;;;;;24.39;45.90;95473.00;10491650;28;1981;-57
2022/06/26 02:28:39;;;;;;;;;;;;;;;24.38;45.92;95482.81;10453265;28;2098;-60
2022/06/26 02:33:39;;;;;;;;;;;;;;;24.38;46.04;95490.75;10460647;28;1963;-59
2022/06/26 02:38:41;;;;;;;;;;;;;;;24.40;45.91;95506.38;10484087;28;1931;-57
2022/06/26 02:43:41;;;;;;;;;;;;;;;24.39;46.24;95499.50;10480226;28;1923;-58
2022/06/26 02:48:41;;;;;;;;;;;;;;;24.38;46.18;95509.31;10481567;28;1992;-59
2022/06/26 02:53:42;;;;;;;;;;;;;;;24.40;46.08;95535.50;10479701;28;1950;-58
2022/06/26 02:58:42;;;;;;;;;;;;;;;24.40;45.98;95530.22;10482435;28;2070;-58
2022/06/26 03:03:42;;;;;;;;;;;;;;;24.39;45.95;95536.59;10479943;28;1991;-59
2022/06/26 03:08:42;;;;;;;;;;;;;;;24.39;45.99;95553.28;10463576;28;2003;-58
2022/06/26 03:13:43;;;;;;;;;;;;;;;24.40;46.05;95554.06;10473712;28;1983;-58
2022/06/26 03:18:43;;;;;;;;;;;;;;;24.39;46.01;95563.06;10464421;28;1932;-59
2022/06/26 03:24:02;;;;;;;;;;;;;;;24.39;45.78;95560.44;10464546;28;1935;-57
2022/06/26 03:29:03;;;;;;;;;;;;;;;24.38;45.96;95549.03;10478614;28;1995;-56
2022/06/26 03:34:03;;;;;;;;;;;;;;;24.39;46.02;95555.13;10463095;28;2058;-60
2022/06/26 03:39:04;;;;;;;;;;;;;;;24.39;45.94;95553.28;10476926;28;1974;-58
2022/06/26 03:44:06;;;;;;;;;;;;;;;24.38;46.07;95546.38;10480181;28;1863;-58
2022/06/26 03:49:07;;;;;;;;;;;;;;;24.39;45.93;95566.50;10477893;28;2048;-58
2022/06/26 03:54:07;;;;;;;;;;;;;;;24.38;45.67;95566.81;10464044;28;1917;-55
2022/06/26 03:59:08;;;;;;;;;;;;;;;24.39;45.95;95568.38;10478795;28;1892;-58
2022/06/26 04:04:09;;;;;;;;;;;;;;;24.38;45.85;95572.13;10463775;28;1951;-57
2022/06/26 04:09:09;;;;;;;;;;;;;;;24.38;45.92;95572.13;10462223;28;1896;-58
2022/06/26 04:14:10;;;;;;;;;;;;;;;24.39;45.76;95581.63;10475752;28;1905;-57
2022/06/26 04:19:11;;;;;;;;;;;;;;;24.38;45.86;95575.53;10480728;28;1951;-58
2022/06/26 04:24:12;;;;;;;;;;;;;;;24.39;45.92;95590.34;10478713;28;1935;-58
2022/06/26 04:29:12;;;;;;;;;;;;;;;24.38;45.95;95582.72;10475187;28;2024;-57
2022/06/26 04:34:13;;;;;;;;;;;;;;;24.38;46.00;95583.47;10478985;28;1909;-58
2022/06/26 04:39:15;;;;;;;;;;;;;;;24.39;46.04;95584.28;10475996;28;2058;-56
2022/06/26 04:44:17;;;;;;;;;;;;;;;24.40;46.00;95580.56;10457388;28;1905;-56
2022/06/26 04:49:18;;;;;;;;;;;;;;;24.39;45.64;95585.06;10475739;28;1948;-58
2022/06/26 04:54:18;;;;;;;;;;;;;;;24.39;45.95;95584.28;10494877;28;1979;-59
2022/06/26 04:59:18;;;;;;;;;;;;;;;24.39;45.45;95578.97;10487786;28;1991;-59
2022/06/26 05:04:18;;;;;;;;;;;;;;;24.40;45.71;95591.16;10461643;28;1945;-58
2022/06/26 05:09:19;;;;;;;;;;;;;;;24.40;45.63;95593.78;10491313;28;1926;-58
2022/06/26 05:14:19;;;;;;;;;;;;;;;24.39;45.69;95590.34;10440898;28;1974;-58
2022/06/26 05:19:20;;;;;;;;;;;;;;;24.40;45.51;95591.16;10477294;28;1991;-55
2022/06/26 05:24:20;;;;;;;;;;;;;;;24.42;45.66;95591.63;10476012;28;1990;-53
2022/06/26 05:29:21;;;;;;;;;;;;;;;24.40;45.64;95593.78;10474169;28;1892;-59
2022/06/26 05:34:22;;;;;;;;;;;;;;;24.40;45.73;95591.91;10475984;28;2130;-55
2022/06/26 05:39:22;;;;;;;;;;;;;;;24.39;45.24;95584.28;10473168;28;1947;-55
2022/06/26 05:44:23;;;;;;;;;;;;;;;24.39;45.42;95592.22;10458301;28;1959;-55
2022/06/26 05:49:23;;;;;;;;;;;;;;;24.39;45.33;95590.34;10476643;28;1938;-54
2022/06/26 05:54:25;;;;;;;;;;;;;;;24.39;45.41;95597.53;10473620;28;1993;-59
2022/06/26 05:59:25;;;;;;;;;;;;;;;24.40;45.32;95599.84;10484982;28;1919;-58
2022/06/26 06:04:26;;;;;;;;;;;;;;;24.42;45.65;95596.94;10485978;28;1945;-57
2022/06/26 06:09:27;;;;;;;;;;;;;;;24.41;45.36;95598.00;10479136;28;1881;-59
2022/06/26 06:14:27;;;;;;;;;;;;;;;24.44;45.31;95602.72;10463494;28;2000;-59
2022/06/26 06:19:27;;;;;;;;;;;;;;;24.44;45.36;95605.34;10493869;28;1887;-58
2022/06/26 06:24:27;;;;;;;;;;;;;;;24.47;45.23;95610.03;10492884;28;2091;-57
2022/06/26 06:29:28;;;;;;;;;;;;;;;24.48;45.66;95603.66;10495225;28;1999;-56
2022/06/26 06:34:28;;;;;;;;;;;;;;;24.48;45.46;95612.41;10496351;28;1909;-58
2022/06/26 06:39:28;;;;;;;;;;;;;;;24.49;45.42;95611.31;10496111;28;1963;-57
2022/06/26 06:44:29;;;;;;;;;;;;;;;24.51;45.55;95616.31;10483048;28;1931;-54
2022/06/26 06:49:29;;;;;;;;;;;;;;;24.51;45.92;95614.44;10479041;28;2094;-59
2022/06/26 06:54:29;;;;;;;;;;;;;;;24.51;45.61;95614.44;10497578;28;2033;-58
2022/06/26 06:59:30;;;;;;;;;;;;;;;24.53;45.49;95606.19;10462892;28;1825;-58
2022/06/26 07:04:30;;;;;;;;;;;;;;;24.52;45.59;95612.59;10480039;28;1793;-57
2022/06/26 07:09:30;;;;;;;;;;;;;;;24.52;45.96;95602.78;10476855;28;1832;-57
2022/06/26 07:14:31;;;;;;;;;;;;;;;24.53;45.54;95600.88;10493322;28;1913;-58
2022/06/26 07:19:31;;;;;;;;;;;;;;;24.52;45.58;95594.03;10475879;28;1742;-59
2022/06/26 07:24:32;;;;;;;;;;;;;;;24.51;45.71;95590.59;10463249;28;1835;-58
2022/06/26 07:29:33;;;;;;;;;;;;;;;24.52;45.87;95591.38;10474184;28;1889;-55
2022/06/26 07:34:33;;;;;;;;;;;;;;;24.51;46.24;95589.81;10480796;28;1919;-55
2022/06/26 07:39:34;;;;;;;;;;;;;;;24.52;45.68;95594.81;10489499;28;1820;-57
2022/06/26 07:44:34;;;;;;;;;;;;;;;24.52;45.67;95594.03;10461240;28;1838;-57
2022/06/26 07:49:34;;;;;;;;;;;;;;;24.53;45.97;95591.06;10458315;28;3726;-55
2022/06/26 07:54:35;;;;;;;;;;;;;;;24.52;46.26;95594.03;10463643;28;1910;-56
2022/06/26 07:59:35;;;;;;;;;;;;;;;24.53;46.12;95599.03;10474342;28;1800;-54
2022/06/26 08:04:36;;;;;;;;;;;;;;;24.53;46.20;95585.78;10459463;28;1849;-54
2022/06/26 08:09:37;;;;;;;;;;;;;;;24.53;46.04;95583.13;10478987;28;1776;-59
2022/06/26 08:14:37;;;;;;;;;;;;;;;24.54;46.13;95575.97;10459860;28;1975;-58
2022/06/26 08:19:37;;;;;;;;;;;;;;;24.54;46.29;95573.31;10456523;28;1875;-57
2022/06/26 08:24:40;;;;;;;;;;;;;;;24.54;46.04;95574.09;10461685;28;1895;-58
2022/06/26 08:29:40;;;;;;;;;;;;;;;24.55;46.18;95561.63;10475502;28;1790;-55
2022/06/26 08:34:41;;;;;;;;;;;;;;;24.55;46.07;95569.56;10474554;28;1973;-58
2022/06/26 08:39:42;;;;;;;;;;;;;;;24.57;46.39;95559.44;10477137;28;1773;-57
2022/06/26 08:44:43;;;;;;;;;;;;;;;24.57;46.17;95565.53;10477005;28;1831;-56
2022/06/26 08:49:43;;;;;;;;;;;;;;;24.57;46.05;95562.88;10476082;28;1882;-58
2022/06/26 08:54:44;;;;;;;;;;;;;;;24.58;46.27;95561.03;10475667;28;1980;-58
2022/06/26 08:59:44;;;;;;;;;;;;;;;24.59;46.37;95562.56;10490084;28;1815;-55
2022/06/26 09:04:45;;;;;;;;;;;;;;;24.59;46.25;95565.22;10489812;28;1763;-58
2022/06/26 09:09:46;;;;;;;;;;;;;;;24.59;46.23;95562.56;10493456;28;2239;-59
2022/06/26 09:14:50;;;;;;;;;;;;;;;24.59;46.38;95558.06;10469665;28;1913;-56
2022/06/26 09:19:51;;;;;;;;;;;;;;;24.60;46.58;95559.63;10472692;28;1917;-57
2022/06/26 09:24:54;;;;;;;;;;;;;;;24.61;46.30;95561.19;10476752;28;1779;-58
2022/06/26 09:29:55;;;;;;;;;;;;;;;24.62;46.38;95561.97;10473814;28;1839;-57
2022/06/26 09:34:55;;;;;;;;;;;;;;;24.61;46.38;95560.41;10454454;28;1914;-57
2022/06/26 09:40:02;;;;;;;;;;;;;;;24.64;46.51;95565.09;10473614;28;1781;-58
2022/06/26 09:45:03;;;;;;;;;;;;;;;24.64;46.61;95557.94;10474321;28;1807;-57
2022/06/26 09:50:04;;;;;;;;;;;;;;;24.66;46.60;95557.63;10481623;28;1829;-56
2022/06/26 09:55:05;;;;;;;;;;;;;;;24.66;46.52;95560.28;10476089;28;1914;-55
2022/06/26 10:00:06;;;;;;;;;;;;;;;24.67;46.62;95559.97;10458950;28;1847;-57
2022/06/26 10:10:27;;;;;;;;;;;;;;;24.68;46.53;95545.66;10455183;28;1804;-60
2022/06/26 10:15:28;;;;;;;;;;;;;;;24.69;46.66;95536.59;10436788;28;2127;-59
2022/06/26 10:20:29;;;;;;;;;;;;;;;24.70;46.56;95532.09;10471126;28;1758;-58
2022/06/26 10:25:30;;;;;;;;;;;;;;;24.71;46.59;95533.66;10456290;28;2122;-53
2022/06/26 10:30:31;;;;;;;;;;;;;;;24.72;46.94;95529.91;10474982;28;1981;-59
2022/06/26 10:35:41;;;;;;;;;;;;;;;24.73;46.64;95534.13;10472991;28;1800;-56
2022/06/26 10:46:01;;;;;;;;;;;;;;;24.74;46.65;95533.06;10471231;28;1785;-57
2022/06/26 10:51:02;;;;;;;;;;;;;;;24.74;46.61;95525.13;10473601;28;1934;-56
2022/06/26 10:56:04;;;;;;;;;;;;;;;24.76;46.47;95522.94;10492394;28;1862;-58
2022/06/26 11:01:06;;;;;;;;;;;;;;;24.76;46.60;95521.06;10459113;28;1853;-56
2022/06/26 11:06:08;;;;;;;;;;;;;;;24.76;46.55;95525.59;10481750;28;1699;-58
2022/06/26 11:11:14;;;;;;;;;;;;;;;24.77;46.81;95511.25;10477149;28;2009;-57
2022/06/26 11:16:15;;;;;;;;;;;;;;;24.77;46.82;95505.97;10483406;28;1778;-58
2022/06/26 11:21:16;;;;;;;;;;;;;;;24.78;46.70;95510.16;10492555;28;1851;-58
2022/06/26 11:26:16;;;;;;;;;;;;;;;24.78;46.80;95510.94;10438584;28;1827;-59
2022/06/26 11:31:20;;;;;;;;;;;;;;;24.80;46.67;95510.63;10462484;28;1918;-59
2022/06/26 11:36:22;;;;;;;;;;;;;;;24.80;46.81;95506.13;10490293;28;2020;-58
2022/06/26 11:41:23;;;;;;;;;;;;;;;24.81;46.79;95504.25;10475926;28;1833;-58
2022/06/26 11:46:24;;;;;;;;;;;;;;;24.81;46.77;95505.03;10459279;28;1847;-57
2022/06/26 11:51:29;;;;;;;;;;;;;;;24.83;46.76;95502.09;10490780;28;1925;-59
2022/06/26 11:56:30;;;;;;;;;;;;;;;24.83;46.71;95507.38;10492850;28;1819;-60
2022/06/26 12:01:31;;;;;;;;;;;;;;;24.84;46.79;95498.34;10477144;28;1809;-58
2022/06/26 12:06:31;;;;;;;;;;;;;;;24.83;46.82;95494.88;10478813;28;1825;-58
2022/06/26 12:11:39;;;;;;;;;;;;;;;24.85;46.61;95497.25;10476163;28;1914;-59
2022/06/26 12:16:43;;;;;;;;;;;;;;;24.86;46.67;95496.16;10474645;28;1795;-59
2022/06/26 12:21:45;;;;;;;;;;;;;;;24.85;46.79;95489.31;10459123;28;1928;-58
2022/06/26 12:26:46;;;;;;;;;;;;;;;24.87;46.96;95493.19;10462272;28;1817;-57
2022/06/26 12:31:47;;;;;;;;;;;;;;;24.87;46.66;95490.53;10468185;28;1911;-56
2022/06/26 12:36:48;;;;;;;;;;;;;;;24.88;46.96;95480.72;10459419;28;1868;-58
2022/06/26 12:41:49;;;;;;;;;;;;;;;24.88;46.98;95476.22;10470152;28;1920;-58
2022/06/26 12:46:50;;;;;;;;;;;;;;;24.88;46.77;95465.59;10489552;28;1962;-57
2022/06/26 12:51:52;;;;;;;;;;;;;;;24.90;46.66;95468.72;10471908;28;1914;-56
2022/06/26 12:56:52;;;;;;;;;;;;;;;24.90;46.88;95460.78;10474904;28;1900;-56
2022/06/26 13:01:52;;;;;;;;;;;;;;;24.91;46.80;95464.22;10477277;28;1781;-56
2022/06/26 13:06:53;;;;;;;;;;;;;;;24.91;47.00;95465.00;10473136;28;2009;-55
2022/06/26 13:11:54;;;;;;;;;;;;;;;24.91;46.81;95465.00;10472099;28;1983;-56
2022/06/26 13:16:54;;;;;;;;;;;;;;;24.92;46.65;95453.28;10469630;28;1931;-57
2022/06/26 13:21:55;;;;;;;;;;;;;;;24.92;46.75;95458.59;10453736;28;2032;-55
2022/06/26 13:26:56;;;;;;;;;;;;;;;24.93;47.01;95452.22;10474421;28;1832;-56
2022/06/26 13:31:56;;;;;;;;;;;;;;;24.94;46.72;95458.28;10448164;28;2246;-57
2022/06/26 13:36:57;;;;;;;;;;;;;;;24.94;46.85;95458.28;10473292;28;1816;-55
2022/06/26 13:41:57;;;;;;;;;;;;;;;24.96;46.90;95450.78;10474714;28;1896;-56
2022/06/26 13:46:58;;;;;;;;;;;;;;;24.96;46.77;95454.25;10476572;28;1873;-58
2022/06/26 13:51:58;;;;;;;;;;;;;;;24.97;46.82;95450.50;10455544;28;1933;-57
2022/06/26 13:56:59;;;;;;;;;;;;;;;24.97;46.95;95457.69;10456680;28;1906;-55
2022/06/26 14:02:00;;;;;;;;;;;;;;;24.97;47.10;95453.16;10473513;28;1805;-59
2022/06/26 14:07:03;;;;;;;;;;;;;;;24.97;47.01;95439.91;10472946;28;1757;-57
2022/06/26 14:12:03;;;;;;;;;;;;;;;24.98;46.96;95443.31;10468785;28;1991;-59
2022/06/26 14:17:03;;;;;;;;;;;;;;;24.99;46.89;95442.25;10459726;28;1830;-56
2022/06/26 14:27:23;;;;;;;;;;;;;;;24.98;46.84;95430.06;10457266;28;1805;-56
2022/06/26 14:32:24;;;;;;;;;;;;;;;25.00;47.13;95425.22;10461761;28;1986;-56
2022/06/26 14:37:26;;;;;;;;;;;;;;;25.00;47.02;95430.53;10458436;28;2051;-55
2022/06/26 14:42:27;;;;;;;;;;;;;;;25.00;46.92;95426.00;10492709;28;1879;-58
2022/06/26 14:47:27;;;;;;;;;;;;;;;25.00;47.14;95425.22;10499534;28;1661;-57
2022/06/26 14:52:27;;;;;;;;;;;;;;;25.01;47.04;95421.50;10493405;28;2023;-57
2022/06/26 14:57:27;;;;;;;;;;;;;;;25.01;47.06;95418.84;10461925;28;1859;-58
2022/06/26 15:02:28;;;;;;;;;;;;;;;25.01;47.09;95416.19;10461204;28;1889;-59
2022/06/26 15:07:28;;;;;;;;;;;;;;;25.01;47.21;95426.81;10459488;28;1764;-57
2022/06/26 15:12:28;;;;;;;;;;;;;;;24.99;47.02;95415.72;10472021;28;1918;-56
2022/06/26 15:17:29;;;;;;;;;;;;;;;24.98;47.29;95411.50;10479555;28;1804;-56
2022/06/26 15:22:30;;;;;;;;;;;;;;;24.95;47.09;95407.63;10447551;28;1854;-58
2022/06/26 15:27:30;;;;;;;;;;;;;;;24.99;47.51;95407.75;10471727;28;1894;-56
2022/06/26 15:32:32;;;;;;;;;;;;;;;24.96;47.37;95409.16;10478601;28;1916;-56
2022/06/26 15:37:32;;;;;;;;;;;;;;;24.98;47.47;95406.97;10477732;28;1834;-58
2022/06/26 15:42:33;;;;;;;;;;;;;;;25.01;47.57;95408.25;10476048;28;1824;-56
2022/06/26 15:47:33;;;;;;;;;;;;;;;25.04;47.18;95400.44;10476156;28;1875;-57
2022/06/26 15:52:34;;;;;;;;;;;;;;;25.02;47.34;95402.63;10467104;28;1949;-57
2022/06/26 15:57:34;;;;;;;;;;;;;;;25.01;47.60;95401.06;10451607;28;1911;-57
2022/06/26 16:02:34;;;;;;;;;;;;;;;25.02;47.81;95392.00;10464903;28;1947;-58
2022/06/26 16:07:35;;;;;;;;;;;;;;;25.05;47.75;95390.63;10481307;28;2223;-57
2022/06/26 16:12:35;;;;;;;;;;;;;;;25.01;47.90;95390.47;10448083;28;2019;-55
2022/06/26 16:17:35;;;;;;;;;;;;;;;25.07;47.80;95388.44;10478957;28;1880;-56
2022/06/26 16:27:55;;;;;;;;;;;;;;;25.09;47.35;95375.66;10464389;28;1851;-57
2022/06/26 16:32:55;;;;;;;;;;;;;;;25.10;47.36;95371.13;10460103;28;1930;-52
2022/06/26 16:37:55;;;;;;;;;;;;;;;25.09;47.30;95365.03;10455715;28;1965;-56
2022/06/26 16:42:56;;;;;;;;;;;;;;;25.09;47.34;95366.91;10478684;28;1851;-56
2022/06/26 16:47:56;;;;;;;;;;;;;;;25.07;47.24;95372.53;10460379;28;1836;-57
2022/06/26 16:52:57;;;;;;;;;;;;;;;25.05;47.38;95369.41;10480846;28;1906;-57
2022/06/26 16:57:57;;;;;;;;;;;;;;;25.08;47.72;95373.31;10446377;28;1859;-55
2022/06/26 17:02:58;;;;;;;;;;;;;;;25.10;47.96;95369.22;10469505;28;1836;-57
2022/06/26 17:07:58;;;;;;;;;;;;;;;25.15;48.01;95376.25;10476227;28;1835;-53
2022/06/26 17:12:59;;;;;;;;;;;;;;;25.11;48.49;95375.31;10473945;28;2094;-56
2022/06/26 17:18:00;;;;;;;;;;;;;;;25.14;48.54;95385.31;10459011;28;1870;-57
2022/06/26 17:23:00;;;;;;;;;;;;;;;25.13;48.41;95379.22;10461861;28;1993;-59
2022/06/26 17:28:00;;;;;;;;;;;;;;;25.16;48.57;95383.13;10458839;28;1914;-58
2022/06/26 17:33:01;;;;;;;;;;;;;;;25.19;48.49;95383.28;10460669;28;1971;-58
2022/06/26 17:38:02;;;;;;;;;;;;;;;25.18;49.06;95392.34;10462730;28;1888;-61
2022/06/26 17:43:03;;;;;;;;;;;;;;;25.15;49.39;95379.69;10465845;28;1842;-57
2022/06/26 17:48:04;;;;;;;;;;;;;;;25.20;48.69;95379.56;10472396;28;1905;-59
2022/06/26 17:53:05;;;;;;;;;;;;;;;25.19;48.88;95382.50;10469485;28;1977;-57
2022/06/26 17:58:05;;;;;;;;;;;;;;;25.19;48.63;95377.19;10463650;28;1866;-58
2022/06/26 18:03:06;;;;;;;;;;;;;;;25.21;48.43;95382.97;10467831;28;1838;-59
2022/06/26 18:08:06;;;;;;;;;;;;;;;25.18;48.88;95389.69;10457602;28;1943;-60
2022/06/26 18:13:07;;;;;;;;;;;;;;;25.19;48.96;95385.16;10487974;28;2009;-59
2022/06/26 18:18:07;;;;;;;;;;;;;;;25.19;48.90;95382.50;10495988;28;1823;-61
2022/06/26 18:23:08;;;;;;;;;;;;;;;25.20;49.07;95387.53;10467260;28;1807;-60
2022/06/26 18:28:08;;;;;;;;;;;;;;;25.22;49.09;95388.00;10462644;28;1965;-59
2022/06/26 18:33:08;;;;;;;;;;;;;;;25.22;48.73;95387.19;10460834;28;1934;-58
2022/06/26 18:38:09;;;;;;;;;;;;;;;25.23;48.66;95400.16;10461663;28;1832;-58
2022/06/26 18:43:09;;;;;;;;;;;;;;;25.24;48.40;95398.28;10458165;28;1841;-56
2022/06/26 18:48:10;;;;;;;;;;;;;;;25.25;48.34;95399.81;10482888;28;1796;-61
2022/06/26 18:53:11;;;;;;;;;;;;;;;25.21;48.42;95404.97;10485365;28;1913;-61
2022/06/26 18:58:12;;;;;;;;;;;;;;;25.21;48.58;95404.19;10477964;28;1789;-58
2022/06/26 19:03:12;;;;;;;;;;;;;;;25.24;48.33;95404.38;10476783;28;1851;-61
2022/06/26 19:08:12;;;;;;;;;;;;;;;25.25;48.32;95408.56;10447689;28;1969;-61
2022/06/26 19:18:32;;;;;;;;;;;;;;;25.26;48.17;95407.50;10474062;28;1871;-56
2022/06/26 19:23:32;;;;;;;;;;;;;;;25.23;47.70;95404.66;10456317;28;1823;-59
2022/06/26 19:28:33;;;;;;;;;;;;;;;25.19;47.17;95407.16;10458836;28;1963;-57
2022/06/26 19:33:33;;;;;;;;;;;;;;;25.16;46.81;95399.84;10473446;28;1969;-61
2022/06/26 19:38:34;;;;;;;;;;;;;;;25.16;46.76;95402.50;10477475;28;1927;-63
2022/06/26 19:43:35;;;;;;;;;;;;;;;25.17;47.05;95409.34;10490841;28;1813;-59
2022/06/26 19:48:36;;;;;;;;;;;;;;;25.18;47.23;95415.44;10459691;28;1843;-56
2022/06/26 19:53:37;;;;;;;;;;;;;;;25.17;47.26;95412.00;10491112;28;1905;-56
2022/06/26 19:58:37;;;;;;;;;;;;;;;25.09;44.80;95404.03;10460014;28;1739;-61
2022/06/26 20:03:56;;;;;;;;;;;;;;;24.97;44.22;95400.13;10453350;28;1910;-55
2022/06/26 20:08:56;;;;;;;;;;;;;;;24.86;42.76;95400.72;10471881;28;1817;-59
2022/06/26 20:13:56;;;;;;;;;;;;;;;24.82;42.51;95394.47;10490747;28;1945;-60
2022/06/26 20:18:57;;;;;;;;;;;;;;;24.74;42.10;95385.41;10489053;28;1902;-58
2022/06/26 20:23:57;;;;;;;;;;;;;;;24.73;42.22;95385.69;10478765;28;1805;-57
2022/06/26 20:28:58;;;;;;;;;;;;;;;24.72;42.28;95387.56;10489127;28;1760;-61
2022/06/26 20:33:58;;;;;;;;;;;;;;;24.69;42.42;95384.75;10493489;28;1961;-61
2022/06/26 20:38:58;;;;;;;;;;;;;;;24.65;41.95;95373.19;10475832;28;1921;-59
2022/06/26 20:43:59;;;;;;;;;;;;;;;24.60;42.15;95381.28;10460162;28;1917;-59
2022/06/26 20:48:59;;;;;;;;;;;;;;;24.58;42.20;95370.22;10458228;28;1929;-58
2022/06/26 20:54:00;;;;;;;;;;;;;;;24.56;41.97;95369.75;10458661;28;1905;-57
2022/06/26 20:59:01;;;;;;;;;;;;;;;24.55;42.14;95361.00;10475125;28;1832;-57
2022/06/26 21:04:01;;;;;;;;;;;;;;;24.54;41.99;95363.97;10473629;28;1879;-58
2022/06/26 21:09:03;;;;;;;;;;;;;;;24.51;42.23;95353.97;10474856;28;1963;-58
2022/06/26 21:14:03;;;;;;;;;;;;;;;24.50;42.27;95352.44;10476139;28;1906;-60
2022/06/26 21:19:04;;;;;;;;;;;;;;;24.48;42.11;95346.66;10471132;28;1808;-57
2022/06/26 21:24:05;;;;;;;;;;;;;;;24.46;42.46;95338.25;10487228;28;1845;-59
2022/06/26 21:29:06;;;;;;;;;;;;;;;24.45;42.60;95328.72;10474376;28;1831;-58
2022/06/26 21:34:06;;;;;;;;;;;;;;;24.42;42.28;95334.63;10477775;28;1969;-59
2022/06/26 21:39:06;;;;;;;;;;;;;;;24.38;42.66;95333.69;10471365;28;2077;-58
2022/06/26 21:44:07;;;;;;;;;;;;;;;24.38;42.63;95333.69;10488399;28;2159;-60
2022/06/26 21:49:07;;;;;;;;;;;;;;;24.34;42.68;95317.63;10486606;28;1858;-59
2022/06/26 21:54:07;;;;;;;;;;;;;;;24.32;42.91;95309.19;10476360;28;1905;-57
2022/06/26 21:59:07;;;;;;;;;;;;;;;24.28;42.74;95310.13;10473533;28;1889;-55
2022/06/26 22:04:08;;;;;;;;;;;;;;;24.24;43.15;95294.06;10458214;28;1892;-56
2022/06/26 22:09:09;;;;;;;;;;;;;;;24.22;43.27;95289.06;10485746;28;1747;-59
2022/06/26 22:14:09;;;;;;;;;;;;;;;24.21;43.08;95286.75;10470472;28;1910;-57
2022/06/26 22:19:09;;;;;;;;;;;;;;;24.17;43.43;95278.63;10480669;28;1813;-59
2022/06/26 22:24:10;;;;;;;;;;;;;;;24.14;43.30;95284.53;10468255;28;1853;-58
2022/06/26 22:29:10;;;;;;;;;;;;;;;24.07;43.62;95267.56;10465516;28;1843;-56
2022/06/26 22:34:29;;;;;;;;;;;;;;;24.11;43.75;95257.91;10471727;28;1925;-57
2022/06/26 22:39:29;;;;;;;;;;;;;;;24.10;43.86;95269.56;10453478;28;1921;-57
2022/06/26 22:44:29;;;;;;;;;;;;;;;24.06;43.67;95264.13;10448988;28;1829;-56
2022/06/26 22:49:30;;;;;;;;;;;;;;;24.00;43.97;95269.81;10484933;28;1893;-58
2022/06/26 22:54:31;;;;;;;;;;;;;;;23.99;44.27;95257.66;10484502;28;1979;-56
2022/06/26 22:59:33;;;;;;;;;;;;;;;24.01;43.96;95264.22;10477864;28;1808;-58
2022/06/26 23:04:33;;;;;;;;;;;;;;;24.01;44.02;95276.66;10479086;28;1904;-57
2022/06/26 23:09:34;;;;;;;;;;;;;;;24.01;44.17;95288.03;10477483;28;1768;-58
2022/06/26 23:14:34;;;;;;;;;;;;;;;24.07;44.27;95270.19;10486326;28;1941;-56
2022/06/26 23:19:35;;;;;;;;;;;;;;;24.07;44.41;95263.00;10463207;28;1892;-56
2022/06/26 23:24:35;;;;;;;;;;;;;;;24.05;44.30;95265.19;10455785;28;1889;-57
2022/06/26 23:29:36;;;;;;;;;;;;;;;24.04;44.57;95258.34;10455686;28;1805;-56
2022/06/26 23:34:37;;;;;;;;;;;;;;;24.01;44.37;95250.97;10474817;28;2173;-57
2022/06/26 23:39:37;;;;;;;;;;;;;;;23.94;44.70;95242.72;10458647;28;1846;-56
2022/06/26 23:44:38;;;;;;;;;;;;;;;23.95;44.96;95241.59;10458496;28;1827;-55
2022/06/26 23:49:38;;;;;;;;;;;;;;;23.91;45.00;95242.53;10478486;28;2201;-56
2022/06/26 23:54:39;;;;;;;;;;;;;;;23.89;44.83;95234.91;10481372;28;2181;-56
2022/06/26 23:59:39;;;;;;;;;;;;;;;23.76;45.33;95232.38;10493520;28;2368;-58
